Aviation Digital Data Service (ADDS)

Output produced by METARs form (1552 UTC 15 October 2018)
found at http://aviationweather.gov/metar/data/
 
KSHV 151145Z 1512/1612 33009KT P6SM VCSH BKN004 OVC014 
     TEMPO 1512/1516 5SM -RA OVC004 
     FM151600 35012G19KT P6SM VCSH OVC007 
     TEMPO 1516/1520 4SM RA OVC004 
     FM160100 01011KT 4SM -RA BR OVC005